Time;durP1;ratioP1;P1;durP2;ratioP2;P2;SDS_P1;SDS_P2;PMS_P1;PMS_P2;Temp;Humidity;BMP_temperature;BMP_pressure;BME280_temperature;BME280_humidity;BME280_pressure;Samples;Min_cycle;Max_cycle;Signal;HPM_P1;HPM_P2
2024/02/05 00:01:34;;;;;;;4.75;1.60;;;;;;;-0.76;79.41;96041.00;5114173;28;20036;-59
2024/02/05 00:04:00;;;;;;;2.88;1.70;;;;;;;-0.81;79.27;96036.50;5092846;28;20121;-60
2024/02/05 00:06:25;;;;;;;6.32;1.80;;;;;;;-0.83;79.38;96030.00;5113980;28;20352;-59
2024/02/05 00:08:52;;;;;;;2.03;1.48;;;;;;;-0.86;79.52;96033.88;5114181;28;20031;-60
2024/02/05 00:11:17;;;;;;;2.20;1.77;;;;;;;-0.84;79.36;96033.63;5114246;28;20039;-60
2024/02/05 00:13:43;;;;;;;2.40;1.40;;;;;;;-0.86;79.46;96031.25;5114173;28;20036;-60
2024/02/05 00:16:10;;;;;;;8.25;1.40;;;;;;;-0.86;79.47;96030.47;5096045;28;20071;-59
2024/02/05 00:18:36;;;;;;;3.88;1.60;;;;;;;-0.91;80.02;96023.44;5113699;28;20074;-60
2024/02/05 00:21:02;;;;;;;1.15;1.00;;;;;;;-0.93;80.05;96022.88;5113799;28;20401;-59
2024/02/05 00:23:28;;;;;;;2.28;1.27;;;;;;;-0.96;80.05;96029.38;5112761;28;20640;-59
2024/02/05 00:25:54;;;;;;;1.02;1.00;;;;;;;-0.94;80.15;96024.72;5114474;28;20122;-60
2024/02/05 00:28:20;;;;;;;3.22;1.42;;;;;;;-0.86;80.74;96028.66;5091710;28;20078;-59
2024/02/05 00:30:46;;;;;;;1.55;1.10;;;;;;;-0.93;80.43;96035.88;5112389;28;20160;-59
2024/02/05 00:33:12;;;;;;;2.05;1.00;;;;;;;-0.79;80.28;96034.47;5112723;28;20035;-61
2024/02/05 00:35:37;;;;;;;2.38;1.20;;;;;;;-0.70;80.25;96034.81;5114083;28;20061;-61
2024/02/05 00:38:03;;;;;;;3.47;1.10;;;;;;;-0.56;80.16;96033.34;5113667;28;20043;-60
2024/02/05 00:40:29;;;;;;;3.00;1.25;;;;;;;-0.46;79.70;96025.63;5112681;28;20051;-59
2024/02/05 00:42:55;;;;;;;2.67;1.20;;;;;;;-0.39;79.31;96030.59;5114212;28;20047;-60
2024/02/05 00:45:20;;;;;;;1.45;1.10;;;;;;;-0.51;79.24;96022.97;5113227;28;20078;-60
2024/02/05 00:47:46;;;;;;;1.63;1.08;;;;;;;-0.55;79.66;96021.13;5112391;28;20509;-60
2024/02/05 00:50:12;;;;;;;2.53;1.40;;;;;;;-0.60;79.82;96021.09;5112406;28;20048;-61
2024/02/05 00:52:38;;;;;;;4.03;1.63;;;;;;;-0.56;79.90;96019.53;5114074;27;20043;-59
2024/02/05 00:55:04;;;;;;;2.83;1.10;;;;;;;-0.46;79.72;96020.41;5113315;28;20047;-60
2024/02/05 00:57:30;;;;;;;3.63;1.70;;;;;;;-0.45;79.68;96016.00;5113676;28;20051;-60
2024/02/05 00:59:56;;;;;;;2.42;1.20;;;;;;;-0.47;79.53;96016.25;5113484;28;20092;-60
2024/02/05 01:02:23;;;;;;;1.52;1.10;;;;;;;-0.46;79.39;96015.22;5112842;28;20120;-60
2024/02/05 01:04:49;;;;;;;2.28;1.20;;;;;;;-0.51;79.09;96015.16;5113527;28;20039;-61
2024/02/05 01:07:16;;;;;;;1.20;1.10;;;;;;;-0.54;79.08;96020.88;5113012;28;20043;-60
2024/02/05 01:09:41;;;;;;;2.20;1.50;;;;;;;-0.62;79.38;96007.53;5113531;28;20058;-59
2024/02/05 01:12:08;;;;;;;2.85;1.60;;;;;;;-0.66;79.77;96003.88;5113087;28;20493;-61
2024/02/05 01:14:34;;;;;;;4.20;1.50;;;;;;;-0.70;80.11;96008.78;5113395;28;20039;-60
2024/02/05 01:17:00;;;;;;;3.05;1.30;;;;;;;-0.67;79.98;96010.91;5113529;28;20431;-60
2024/02/05 01:19:26;;;;;;;2.25;1.40;;;;;;;-0.59;79.60;96017.44;5113410;28;20039;-61
2024/02/05 01:21:52;;;;;;;2.53;1.40;;;;;;;-0.55;79.62;96018.53;5113102;28;20166;-59
2024/02/05 01:24:18;;;;;;;4.65;1.50;;;;;;;-0.46;79.73;96015.22;5114097;28;20394;-61
2024/02/05 01:26:44;;;;;;;5.65;1.52;;;;;;;-0.36;79.45;96014.50;5113420;27;20051;-60
2024/02/05 01:29:09;;;;;;;2.78;1.40;;;;;;;-0.30;79.07;96007.50;5112228;28;20059;-60
2024/02/05 01:31:36;;;;;;;2.17;1.20;;;;;;;-0.21;79.20;96013.81;5111268;28;20062;-60
2024/02/05 01:34:02;;;;;;;1.88;1.58;;;;;;;-0.15;78.05;96006.81;5111742;28;20040;-60
2024/02/05 01:36:28;;;;;;;3.45;1.40;;;;;;;-0.16;78.30;96006.03;5112019;28;20039;-61
2024/02/05 01:38:55;;;;;;;2.85;1.63;;;;;;;-0.02;78.27;96012.38;5112882;28;20043;-61
2024/02/05 01:41:23;;;;;;;2.60;1.40;;;;;;;-0.09;77.55;96013.63;5091183;28;20044;-60
2024/02/05 01:43:50;;;;;;;2.70;1.85;;;;;;;-0.01;77.92;96018.34;5111091;28;20035;-61
2024/02/05 01:46:20;;;;;;;2.92;1.58;;;;;;;0.03;78.16;96016.03;5111273;28;20423;-59
2024/02/05 01:48:46;;;;;;;4.65;1.70;;;;;;;0.02;77.75;96004.06;5097895;28;20447;-61
2024/02/05 01:51:13;;;;;;;4.47;1.58;;;;;;;-0.08;77.95;96007.41;5094412;28;20196;-60
2024/02/05 01:53:40;;;;;;;4.55;2.03;;;;;;;0.03;78.27;96008.22;5111158;28;20092;-61
2024/02/05 01:56:06;;;;;;;3.55;2.13;;;;;;;-0.02;78.21;96007.16;5111153;28;20489;-59
2024/02/05 01:58:32;;;;;;;4.35;2.35;;;;;;;0.10;78.03;96004.34;5093561;28;20043;-60
2024/02/05 02:00:58;;;;;;;2.22;1.65;;;;;;;0.18;77.71;95995.28;5110904;28;20069;-59
2024/02/05 02:03:26;;;;;;;2.88;1.55;;;;;;;0.12;77.43;96001.47;5110711;28;20032;-61
2024/02/05 02:05:51;;;;;;;4.00;1.77;;;;;;;0.15;77.90;96009.59;5094139;28;20496;-59
2024/02/05 02:08:18;;;;;;;7.45;2.60;;;;;;;0.15;77.51;96011.44;5111509;28;20127;-60
2024/02/05 02:10:46;;;;;;;3.95;2.10;;;;;;;0.13;77.29;96006.44;5111210;28;20089;-61
2024/02/05 02:13:12;;;;;;;4.18;2.15;;;;;;;0.20;77.96;96001.78;5110236;28;20039;-60
2024/02/05 02:15:38;;;;;;;3.60;1.90;;;;;;;0.26;77.54;96007.81;5112222;28;20050;-61
2024/02/05 02:18:07;;;;;;;5.20;2.03;;;;;;;0.30;77.02;96002.91;5112457;28;20039;-60
2024/02/05 02:20:42;;;;;;;4.43;2.08;;;;;;;0.31;76.87;95997.41;5111019;28;20035;-60
2024/02/05 02:23:17;;;;;;;3.80;2.00;;;;;;;0.30;77.17;96001.06;5110848;28;20517;-61
2024/02/05 02:25:43;;;;;;;4.00;2.30;;;;;;;0.28;77.58;95991.94;5112267;28;20459;-60
2024/02/05 02:28:08;;;;;;;4.45;2.08;;;;;;;0.38;77.26;96007.59;5110826;28;20101;-59
2024/02/05 02:30:34;;;;;;;4.15;2.03;;;;;;;0.25;77.39;96002.88;5093461;28;20421;-61
2024/02/05 02:33:00;;;;;;;4.07;2.25;;;;;;;0.21;77.77;96003.38;5111722;28;20436;-59
2024/02/05 02:35:39;;;;;;;3.90;2.33;;;;;;;0.18;77.72;96001.28;5111835;28;20046;-60
2024/02/05 02:38:10;;;;;;;2.65;1.70;;;;;;;0.19;77.63;95999.44;5110538;28;20132;-57
2024/02/05 02:40:37;;;;;;;4.38;2.05;;;;;;;0.22;77.83;95993.72;5076828;28;20035;-58
2024/02/05 02:43:04;;;;;;;5.18;2.22;;;;;;;0.24;77.52;95994.28;5093781;28;20056;-60
2024/02/05 02:45:31;;;;;;;3.45;2.00;;;;;;;0.32;77.74;95996.38;5110789;28;20047;-60
2024/02/05 02:47:56;;;;;;;3.63;2.00;;;;;;;0.32;77.42;95992.97;5112160;28;20040;-59
2024/02/05 02:50:22;;;;;;;3.08;1.98;;;;;;;0.28;77.51;95995.31;5111718;28;20046;-61
2024/02/05 02:52:48;;;;;;;6.00;2.10;;;;;;;0.25;77.94;95990.63;5112071;28;20046;-59
2024/02/05 02:55:14;;;;;;;3.47;1.90;;;;;;;0.25;77.77;95982.81;5111549;28;20062;-60
2024/02/05 02:57:40;;;;;;;2.60;1.88;;;;;;;0.28;77.88;95987.50;5112028;28;20047;-58
2024/02/05 03:00:08;;;;;;;4.70;2.05;;;;;;;0.34;77.50;95980.50;5110516;28;20097;-59
2024/02/05 03:02:34;;;;;;;6.18;2.35;;;;;;;0.38;77.11;95982.34;5110492;28;20048;-59
2024/02/05 03:05:01;;;;;;;5.65;2.08;;;;;;;0.39;77.39;95980.50;5111551;28;20070;-59
2024/02/05 03:07:34;;;;;;;4.17;2.20;;;;;;;0.37;77.30;95975.53;5112941;28;20048;-59
2024/02/05 03:10:01;;;;;;;6.18;2.33;;;;;;;0.39;77.21;95978.69;5115662;28;20047;-60
2024/02/05 03:12:29;;;;;;;4.75;2.00;;;;;;;0.38;76.96;95981.53;5115884;28;20577;-60
2024/02/05 03:14:55;;;;;;;3.00;2.22;;;;;;;0.39;76.77;95967.50;5115155;28;20043;-61
2024/02/05 03:17:21;;;;;;;8.38;2.13;;;;;;;0.40;77.20;95969.03;5115420;28;20043;-60
2024/02/05 03:19:47;;;;;;;8.02;2.60;;;;;;;0.39;76.99;95960.44;5115137;28;20079;-59
2024/02/05 03:22:12;;;;;;;3.97;2.40;;;;;;;0.32;77.23;95962.50;5115290;28;20040;-59
2024/02/05 03:24:38;;;;;;;5.10;2.10;;;;;;;0.30;77.25;95964.59;5114764;28;20040;-61
2024/02/05 03:27:04;;;;;;;5.75;2.10;;;;;;;0.29;77.50;95965.63;5115214;28;20044;-59
2024/02/05 03:29:30;;;;;;;4.30;2.25;;;;;;;0.33;76.85;95963.31;5115319;28;20501;-61
2024/02/05 03:31:55;;;;;;;6.95;2.15;;;;;;;0.39;76.93;95957.84;5115526;27;20497;-60
2024/02/05 03:34:21;;;;;;;5.10;2.38;;;;;;;0.43;76.47;95960.72;5114229;28;20126;-61
2024/02/05 03:36:47;;;;;;;3.20;2.72;;;;;;;0.45;76.67;95956.81;5113812;28;20039;-59
2024/02/05 03:39:12;;;;;;;5.78;2.35;;;;;;;0.36;75.96;95952.38;5115298;28;20404;-60
2024/02/05 03:41:38;;;;;;;3.03;2.00;;;;;;;0.33;76.38;95952.88;5115309;28;20048;-60
2024/02/05 03:44:04;;;;;;;5.88;2.25;;;;;;;0.39;76.41;95963.06;5115087;28;20386;-59
2024/02/05 03:46:29;;;;;;;6.88;2.17;;;;;;;0.30;76.54;95948.19;5113669;28;20050;-60
2024/02/05 03:48:55;;;;;;;4.70;2.58;;;;;;;0.31;77.00;95965.38;5113574;28;20416;-60
2024/02/05 03:51:21;;;;;;;4.38;1.90;;;;;;;0.39;76.54;95954.47;5114980;27;20093;-59
2024/02/05 03:53:51;;;;;;;5.93;1.90;;;;;;;0.39;76.19;95957.06;5092904;28;20409;-59
2024/02/05 03:56:18;;;;;;;3.08;1.77;;;;;;;0.38;75.91;95945.88;5093170;28;20127;-59
2024/02/05 03:58:44;;;;;;;5.80;2.10;;;;;;;0.40;76.15;95948.19;5093845;28;20061;-59
2024/02/05 04:01:10;;;;;;;7.15;2.05;;;;;;;0.43;76.07;95945.84;5092856;28;20040;-59
2024/02/05 04:03:36;;;;;;;4.22;1.60;;;;;;;0.48;75.74;95952.91;5076019;28;20126;-60
2024/02/05 04:06:02;;;;;;;6.00;2.33;;;;;;;0.48;75.24;95950.31;5076168;28;20051;-59
2024/02/05 04:08:28;;;;;;;4.13;1.77;;;;;;;0.47;75.18;95945.34;5094192;28;20032;-60
2024/02/05 04:10:56;;;;;;;6.25;2.10;;;;;;;0.48;75.19;95939.13;5093985;28;20089;-60
2024/02/05 04:13:21;;;;;;;4.22;2.13;;;;;;;0.43;75.38;95950.28;5094027;28;20036;-60
2024/02/05 04:15:47;;;;;;;4.68;1.85;;;;;;;0.47;74.79;95950.56;5093691;28;20032;-60
2024/02/05 04:18:13;;;;;;;2.38;1.52;;;;;;;0.39;75.15;95951.84;5091804;28;20067;-60
2024/02/05 04:20:39;;;;;;;5.80;1.77;;;;;;;0.43;75.25;95945.09;5103446;28;20084;-61
2024/02/05 04:23:05;;;;;;;2.88;1.65;;;;;;;0.43;74.63;95945.84;5113268;28;20046;-60
2024/02/05 04:25:31;;;;;;;3.78;1.90;;;;;;;0.49;74.38;95951.88;5114509;28;20128;-61
2024/02/05 04:27:57;;;;;;;5.80;2.20;;;;;;;0.45;74.68;95946.41;5114223;28;20073;-59
2024/02/05 04:30:37;;;;;;;4.20;2.03;;;;;;;0.41;74.97;95953.16;5114246;28;20516;-61
2024/02/05 04:33:03;;;;;;;4.20;1.97;;;;;;;0.36;74.60;95944.56;5112386;28;20475;-61
2024/02/05 04:35:28;;;;;;;4.60;2.30;;;;;;;0.30;75.12;95945.59;5113966;27;20295;-60
2024/02/05 04:37:54;;;;;;;6.22;1.98;;;;;;;0.32;75.28;95941.66;5114286;28;20035;-63
2024/02/05 04:40:20;;;;;;;8.30;2.05;;;;;;;0.30;74.53;95941.16;5095544;28;20047;-59
2024/02/05 04:42:45;;;;;;;4.28;1.98;;;;;;;0.25;74.97;95933.31;5113919;28;20039;-61
2024/02/05 04:45:12;;;;;;;5.32;2.28;;;;;;;0.18;75.19;95941.38;5112560;28;20040;-60
2024/02/05 04:47:38;;;;;;;8.77;2.13;;;;;;;0.12;75.66;95937.19;5114035;28;20043;-59
2024/02/05 04:50:07;;;;;;;7.07;2.30;;;;;;;0.20;75.41;95935.88;5113865;28;20065;-59
2024/02/05 04:52:33;;;;;;;7.25;2.42;;;;;;;0.14;75.09;95936.91;5095406;28;20135;-60
2024/02/05 04:54:59;;;;;;;6.68;2.35;;;;;;;0.12;74.99;95931.97;5113795;28;20074;-60
2024/02/05 04:57:24;;;;;;;6.05;2.13;;;;;;;0.15;75.58;95921.03;5113808;28;20101;-57
2024/02/05 04:59:50;;;;;;;3.90;2.20;;;;;;;0.20;74.71;95935.88;5113336;28;20058;-60
2024/02/05 05:02:16;;;;;;;4.80;2.08;;;;;;;0.24;74.61;95918.72;5113342;28;20505;-60
2024/02/05 05:04:42;;;;;;;4.57;1.92;;;;;;;0.19;74.58;95909.06;5113511;28;20077;-61
2024/02/05 05:07:08;;;;;;;3.03;1.98;;;;;;;0.25;74.24;95925.50;5094011;28;20050;-61
2024/02/05 05:09:34;;;;;;;6.50;2.30;;;;;;;0.20;73.93;95921.03;5113546;28;20036;-62
2024/02/05 05:12:00;;;;;;;4.70;2.03;;;;;;;0.20;74.36;95921.03;5078016;28;20452;-60
2024/02/05 05:14:25;;;;;;;5.50;2.00;;;;;;;0.17;74.39;95921.56;5112601;28;20036;-60
2024/02/05 05:16:51;;;;;;;4.40;2.45;;;;;;;0.10;74.76;95928.84;5113301;28;20047;-60
2024/02/05 05:19:17;;;;;;;8.90;2.40;;;;;;;0.05;75.25;95926.19;5113267;28;20122;-62
2024/02/05 05:21:44;;;;;;;5.68;1.90;;;;;;;0.00;75.67;95931.41;5111331;28;20043;-59
2024/02/05 05:24:11;;;;;;;5.57;2.38;;;;;;;0.03;75.58;95923.09;5111660;28;20089;-60
2024/02/05 05:26:37;;;;;;;6.85;2.63;;;;;;;0.10;75.27;95920.25;5112825;28;20043;-60
2024/02/05 05:29:04;;;;;;;6.60;2.47;;;;;;;0.16;75.02;95920.00;5113052;28;20080;-60
2024/02/05 05:31:30;;;;;;;6.13;2.60;;;;;;;0.16;75.13;95912.19;5094339;28;20142;-60
2024/02/05 05:33:56;;;;;;;8.38;2.70;;;;;;;0.14;75.02;95910.88;5111295;28;20114;-60
2024/02/05 05:36:23;;;;;;;6.90;2.45;;;;;;;0.14;74.88;95916.06;5110365;28;20405;-59
2024/02/05 05:38:48;;;;;;;5.82;2.30;;;;;;;0.15;74.80;95915.06;5112400;28;20134;-60
2024/02/05 05:41:14;;;;;;;5.18;2.63;;;;;;;0.22;74.88;95918.97;5112791;28;20118;-61
2024/02/05 05:43:40;;;;;;;9.00;2.60;;;;;;;0.19;74.09;95919.47;5112087;28;20038;-60
2024/02/05 05:46:05;;;;;;;8.88;2.45;;;;;;;0.21;74.32;95920.03;5112215;28;20420;-59
2024/02/05 05:48:31;;;;;;;4.90;2.22;;;;;;;0.20;74.29;95915.81;5093647;28;20031;-59
2024/02/05 05:50:58;;;;;;;9.38;2.30;;;;;;;0.29;74.04;95913.50;5111926;28;20047;-57
2024/02/05 05:53:26;;;;;;;7.35;2.35;;;;;;;0.31;74.08;95914.03;5092958;28;20032;-60
2024/02/05 05:55:52;;;;;;;5.18;2.17;;;;;;;0.32;73.68;95917.44;5110235;28;20043;-59
2024/02/05 05:58:19;;;;;;;5.32;2.38;;;;;;;0.29;73.41;95910.91;5110415;28;20446;-60
2024/02/05 06:00:45;;;;;;;6.13;2.47;;;;;;;0.27;73.51;95914.84;5111681;28;20112;-59
2024/02/05 06:03:15;;;;;;;5.60;2.53;;;;;;;0.32;73.39;95915.59;5112464;28;20046;-59
2024/02/05 06:05:42;;;;;;;5.15;2.53;;;;;;;0.30;73.29;95907.28;5111699;28;20408;-59
2024/02/05 06:08:08;;;;;;;4.32;2.20;;;;;;;0.33;72.91;95911.19;5111412;28;20493;-61
2024/02/05 06:10:34;;;;;;;5.13;2.40;;;;;;;0.37;73.32;95922.66;5111742;28;20051;-59
2024/02/05 06:13:03;;;;;;;6.25;2.55;;;;;;;0.43;73.27;95916.41;5112451;28;20048;-56
2024/02/05 06:15:28;;;;;;;4.05;2.35;;;;;;;0.48;72.52;95907.84;5111776;28;20071;-59
2024/02/05 06:17:54;;;;;;;4.78;2.40;;;;;;;0.47;72.55;95906.25;5110973;28;20075;-58
2024/02/05 06:20:20;;;;;;;5.50;2.20;;;;;;;0.55;72.60;95909.16;5111838;28;20051;-61
2024/02/05 06:22:45;;;;;;;7.03;2.60;;;;;;;0.55;72.50;95909.16;5109845;28;20043;-59
2024/02/05 06:25:11;;;;;;;5.13;2.63;;;;;;;0.58;72.48;95911.22;5111842;28;20048;-61
2024/02/05 06:27:37;;;;;;;6.68;2.65;;;;;;;0.54;72.26;95912.81;5111051;28;20483;-56
2024/02/05 06:30:03;;;;;;;6.95;2.20;;;;;;;0.51;72.58;95910.72;5109687;28;20040;-60
2024/02/05 06:32:30;;;;;;;7.60;2.58;;;;;;;0.56;72.32;95921.16;5111542;28;20117;-57
2024/02/05 06:34:56;;;;;;;6.60;3.15;;;;;;;0.66;72.02;95913.34;5111992;28;20075;-59
2024/02/05 06:37:22;;;;;;;7.25;2.63;;;;;;;0.69;71.40;95912.03;5111763;28;20043;-59
2024/02/05 06:39:47;;;;;;;6.30;2.70;;;;;;;0.67;72.16;95912.28;5109837;28;20077;-58
2024/02/05 06:42:13;;;;;;;9.93;2.65;;;;;;;0.74;71.81;95919.88;5111272;28;20057;-57
2024/02/05 06:44:39;;;;;;;6.90;2.80;;;;;;;0.64;71.92;95914.63;5093405;28;20359;-58
2024/02/05 06:47:05;;;;;;;5.50;2.67;;;;;;;0.70;72.15;95920.63;5111248;28;20043;-59
2024/02/05 06:49:30;;;;;;;5.70;2.33;;;;;;;0.77;71.96;95916.75;5111577;28;20093;-57
2024/02/05 06:51:56;;;;;;;6.97;2.60;;;;;;;0.78;71.89;95920.91;5111583;28;20088;-58
2024/02/05 06:54:22;;;;;;;5.65;2.47;;;;;;;0.81;71.75;95923.00;5111545;28;20099;-58
2024/02/05 06:56:47;;;;;;;9.95;3.10;;;;;;;0.84;71.67;95908.66;5111498;28;20357;-59
2024/02/05 06:59:14;;;;;;;7.05;3.13;;;;;;;0.82;71.98;95914.13;5110062;28;20043;-60
2024/02/05 07:01:39;;;;;;;10.65;4.10;;;;;;;0.82;72.07;95906.31;5109607;28;20047;-56
2024/02/05 07:04:05;;;;;;;6.68;2.53;;;;;;;0.94;71.53;95905.25;5093393;28;20039;-60
2024/02/05 07:06:31;;;;;;;6.25;2.75;;;;;;;1.02;71.17;95902.16;5110100;28;20044;-59
2024/02/05 07:08:56;;;;;;;8.80;3.20;;;;;;;1.06;70.42;95906.59;5109782;28;20074;-62
2024/02/05 07:11:22;;;;;;;7.95;2.95;;;;;;;1.09;71.09;95900.06;5110748;28;20043;-58
2024/02/05 07:13:48;;;;;;;11.63;3.72;;;;;;;1.21;70.94;95897.97;5110741;28;20039;-59
2024/02/05 07:16:15;;;;;;;6.45;2.90;;;;;;;1.27;70.45;95896.91;5110020;28;20125;-62
2024/02/05 07:18:41;;;;;;;8.07;3.08;;;;;;;1.37;70.34;95898.72;5110432;28;20089;-60
2024/02/05 07:21:07;;;;;;;7.63;3.50;;;;;;;1.41;69.89;95893.75;5111219;28;20505;-59
2024/02/05 07:23:35;;;;;;;12.50;3.20;;;;;;;1.43;69.91;95895.06;5110916;28;20046;-60
2024/02/05 07:26:01;;;;;;;8.70;3.50;;;;;;;1.53;69.48;95897.66;5092764;28;20048;-60
2024/02/05 07:28:27;;;;;;;10.23;3.08;;;;;;;1.63;68.86;95907.28;5110030;28;20052;-59
2024/02/05 07:30:57;;;;;;;7.88;3.38;;;;;;;1.64;68.65;95898.41;5092821;28;20035;-60
2024/02/05 07:33:23;;;;;;;7.18;3.60;;;;;;;1.78;68.47;95894.19;5092351;28;20105;-57
2024/02/05 07:35:49;;;;;;;7.97;3.55;;;;;;;1.89;68.24;95891.53;5109671;28;20044;-58
2024/02/05 07:38:16;;;;;;;6.78;2.92;;;;;;;1.92;67.66;95891.78;5109399;28;20130;-59
2024/02/05 07:40:42;;;;;;;7.05;2.97;;;;;;;2.03;67.87;95890.69;5110187;28;20066;-60
2024/02/05 07:43:07;;;;;;;7.18;3.38;;;;;;;2.08;66.90;95889.88;5107690;28;20044;-61
2024/02/05 07:45:33;;;;;;;6.82;2.72;;;;;;;2.10;66.29;95887.78;5110637;28;20036;-60
2024/02/05 07:48:00;;;;;;;6.05;3.05;;;;;;;2.15;66.99;95893.00;5110819;28;20457;-60
2024/02/05 07:50:25;;;;;;;6.75;2.60;;;;;;;2.22;66.51;95890.88;5109540;28;20044;-59
2024/02/05 07:52:51;;;;;;;6.35;2.70;;;;;;;2.14;66.03;95888.03;5110626;28;20048;-59
2024/02/05 07:55:17;;;;;;;7.38;3.08;;;;;;;2.25;66.58;95887.72;5111990;28;20266;-61
2024/02/05 07:57:43;;;;;;;5.13;2.55;;;;;;;2.27;66.18;95885.63;5113851;28;20509;-58
2024/02/05 08:00:10;;;;;;;5.80;3.28;;;;;;;2.31;66.29;95892.91;5095519;28;20078;-61
2024/02/05 08:02:40;;;;;;;8.98;2.90;;;;;;;2.33;65.59;95893.44;5112646;28;20071;-58
2024/02/05 08:05:06;;;;;;;6.82;2.42;;;;;;;2.36;65.13;95896.28;5112888;28;20094;-61
2024/02/05 08:07:32;;;;;;;4.22;2.47;;;;;;;2.26;65.94;95896.31;5095390;28;20576;-59
2024/02/05 08:09:57;;;;;;;9.65;3.00;;;;;;;2.18;66.08;95896.91;5113380;28;20108;-61
2024/02/05 08:12:23;;;;;;;10.80;3.75;;;;;;;2.12;65.62;95897.97;5111754;28;20079;-61
2024/02/05 08:14:49;;;;;;;7.05;2.50;;;;;;;2.05;65.83;95895.66;5112392;28;20422;-61
2024/02/05 08:17:14;;;;;;;5.75;2.28;;;;;;;2.05;66.23;95896.41;5113588;28;20055;-59
2024/02/05 08:19:40;;;;;;;7.95;2.72;;;;;;;2.17;65.99;95897.94;5113940;28;20097;-61
2024/02/05 08:22:06;;;;;;;10.00;3.17;;;;;;;2.30;65.75;95901.81;5115235;27;20051;-62
2024/02/05 08:24:31;;;;;;;6.80;2.83;;;;;;;2.37;64.95;95904.91;5112993;28;20046;-61
2024/02/05 08:26:57;;;;;;;7.32;2.90;;;;;;;2.45;64.93;95896.50;5112325;28;20043;-60
2024/02/05 08:29:23;;;;;;;8.70;3.17;;;;;;;2.52;64.91;95899.59;5113362;27;20056;-61
2024/02/05 08:31:49;;;;;;;5.55;2.85;;;;;;;2.55;64.24;95896.44;5091616;28;20047;-60
2024/02/05 08:34:15;;;;;;;5.28;2.33;;;;;;;2.60;64.72;95891.16;5093495;28;20080;-63
2024/02/05 08:36:41;;;;;;;7.95;2.72;;;;;;;2.68;64.53;95887.22;5095931;28;20094;-61
2024/02/05 08:39:09;;;;;;;6.03;2.53;;;;;;;2.75;64.30;95894.75;5113322;28;20070;-58
2024/02/05 08:41:35;;;;;;;5.90;2.58;;;;;;;2.76;62.76;95888.44;5113103;28;20054;-58
2024/02/05 08:44:01;;;;;;;5.65;2.50;;;;;;;2.75;63.35;95890.28;5113490;28;20044;-59
2024/02/05 08:46:27;;;;;;;3.92;2.28;;;;;;;2.77;62.94;95884.78;5113521;28;20122;-59
2024/02/05 08:48:53;;;;;;;4.72;2.17;;;;;;;2.68;63.17;95888.00;5113110;28;20683;-60
2024/02/05 08:51:18;;;;;;;8.60;2.10;;;;;;;2.75;63.39;95884.28;5095211;28;20047;-59
2024/02/05 08:53:46;;;;;;;5.35;2.13;;;;;;;2.69;62.76;95889.53;5111705;28;20044;-55
2024/02/05 08:56:13;;;;;;;4.93;2.40;;;;;;;2.52;62.90;95889.13;5113154;28;20062;-60
2024/02/05 08:58:38;;;;;;;7.40;2.22;;;;;;;2.37;63.84;95894.44;5112768;28;20036;-59
2024/02/05 09:01:04;;;;;;;5.10;2.03;;;;;;;2.29;64.04;95882.72;5111173;28;20035;-60
2024/02/05 09:03:30;;;;;;;7.72;2.40;;;;;;;2.39;63.89;95890.53;5111472;28;20051;-57
2024/02/05 09:05:56;;;;;;;5.25;2.45;;;;;;;2.53;63.95;95884.66;5093876;28;20054;-58
2024/02/05 09:08:21;;;;;;;5.32;2.13;;;;;;;2.59;63.63;95888.81;5107014;28;20032;-61
2024/02/05 09:10:47;;;;;;;8.68;2.58;;;;;;;2.64;63.58;95881.72;5112973;28;20035;-59
2024/02/05 09:13:13;;;;;;;6.30;2.20;;;;;;;2.39;64.05;95889.75;5112771;28;20032;-60
2024/02/05 09:15:42;;;;;;;5.32;2.50;;;;;;;2.29;64.29;95885.34;5113230;28;20032;-57
2024/02/05 09:18:08;;;;;;;4.47;2.28;;;;;;;2.37;63.73;95879.53;5112310;28;20518;-58
2024/02/05 09:20:34;;;;;;;5.75;2.53;;;;;;;2.35;63.71;95876.41;5112873;28;20048;-60
2024/02/05 09:22:59;;;;;;;7.35;2.55;;;;;;;2.41;63.90;95888.44;5074156;28;20051;-61
2024/02/05 09:25:25;;;;;;;9.93;3.50;;;;;;;2.27;63.22;95884.84;5105108;28;20120;-59
2024/02/05 09:27:52;;;;;;;9.32;3.92;;;;;;;2.24;63.48;95880.16;5112597;28;20425;-60
2024/02/05 09:30:20;;;;;;;5.93;2.95;;;;;;;2.28;63.34;95886.41;5112789;28;20047;-61
2024/02/05 09:32:49;;;;;;;7.18;2.60;;;;;;;2.10;63.22;95879.97;5112939;28;20194;-59
2024/02/05 09:35:18;;;;;;;7.90;2.88;;;;;;;2.23;64.02;95881.19;5111012;28;20043;-58
2024/02/05 09:37:47;;;;;;;7.93;2.53;;;;;;;2.28;63.78;95887.16;5077713;28;20044;-60
2024/02/05 09:40:12;;;;;;;10.80;3.22;;;;;;;2.24;62.98;95882.78;5112066;28;20043;-59
2024/02/05 09:42:38;;;;;;;7.13;3.20;;;;;;;2.00;63.22;95887.81;5110980;28;20043;-61
2024/02/05 09:45:06;;;;;;;4.60;2.85;;;;;;;2.13;63.25;95884.63;5111518;28;20035;-61
2024/02/05 09:47:33;;;;;;;4.50;2.40;;;;;;;2.28;62.34;95886.41;5076937;28;20047;-60
2024/02/05 09:50:01;;;;;;;4.47;2.05;;;;;;;2.41;62.06;95888.44;5112356;28;20497;-59
2024/02/05 09:52:27;;;;;;;7.18;2.80;;;;;;;2.56;61.73;95881.50;5090850;28;20085;-58
2024/02/05 09:54:53;;;;;;;6.25;2.80;;;;;;;2.69;61.27;95886.16;5107673;28;20501;-60
2024/02/05 09:57:22;;;;;;;5.53;2.85;;;;;;;2.68;61.14;95884.59;5093281;28;20071;-60
2024/02/05 09:59:48;;;;;;;4.32;2.40;;;;;;;2.65;60.23;95875.47;5112509;28;20133;-60
2024/02/05 10:02:16;;;;;;;10.65;2.70;;;;;;;2.53;60.77;95879.44;5110731;28;20123;-62
2024/02/05 10:04:43;;;;;;;4.68;2.45;;;;;;;2.15;59.86;95881.78;5073378;28;20612;-58
2024/02/05 10:07:16;;;;;;;6.82;2.65;;;;;;;2.24;60.64;95888.00;5108845;28;20046;-60
2024/02/05 10:09:42;;;;;;;7.35;2.65;;;;;;;2.32;59.99;95879.56;5112106;28;20069;-60
2024/02/05 10:12:11;;;;;;;8.13;2.78;;;;;;;2.38;60.01;95883.75;5111572;28;20542;-60
2024/02/05 10:14:37;;;;;;;4.20;3.15;;;;;;;2.26;59.70;95868.38;5110201;28;20070;-59
2024/02/05 10:17:03;;;;;;;5.80;2.42;;;;;;;2.34;60.17;95880.09;5111212;28;20035;-59
2024/02/05 10:19:30;;;;;;;5.40;2.60;;;;;;;2.35;60.02;95884.25;5110437;28;20039;-58
2024/02/05 10:21:57;;;;;;;6.13;2.42;;;;;;;2.38;60.28;95878.50;5111957;28;20051;-58
2024/02/05 10:24:23;;;;;;;5.03;2.50;;;;;;;2.43;59.66;95877.69;5119476;27;20543;-60
2024/02/05 10:26:49;;;;;;;8.23;2.90;;;;;;;2.51;59.22;95874.50;5115753;27;20046;-59
2024/02/05 10:29:15;;;;;;;4.35;2.40;;;;;;;2.56;59.34;95881.50;5113765;27;20050;-60
2024/02/05 10:31:47;;;;;;;4.05;2.38;;;;;;;2.67;59.20;95875.16;5118473;27;20039;-61
2024/02/05 10:34:17;;;;;;;7.28;2.72;;;;;;;2.70;59.48;95878.00;5121484;27;20069;-59
2024/02/05 10:37:02;;;;;;;3.67;2.70;;;;;;;2.63;58.18;95877.56;5099399;28;20055;-60
2024/02/05 10:39:35;;;;;;;3.83;2.33;;;;;;;2.61;58.36;95874.41;5073854;28;20077;-59
2024/02/05 10:42:00;;;;;;;6.25;2.50;;;;;;;2.45;58.66;95873.75;5111659;28;20059;-60
2024/02/05 10:44:28;;;;;;;5.22;2.30;;;;;;;2.30;59.44;95879.06;5109999;28;20036;-60
2024/02/05 10:46:55;;;;;;;5.40;2.25;;;;;;;2.18;60.46;95879.41;5093041;28;20035;-61
2024/02/05 10:49:21;;;;;;;4.05;2.20;;;;;;;2.13;59.89;95884.63;5111413;28;20028;-60
2024/02/05 10:51:47;;;;;;;6.22;2.17;;;;;;;2.15;59.61;95874.72;5110752;28;20075;-56
2024/02/05 10:54:12;;;;;;;4.35;1.77;;;;;;;2.37;58.24;95886.59;5110635;28;20082;-60
2024/02/05 10:56:41;;;;;;;3.20;1.90;;;;;;;2.62;58.02;95886.47;5111434;28;20127;-60
2024/02/05 10:59:10;;;;;;;4.65;1.85;;;;;;;2.72;56.21;95885.59;5110609;28;20075;-61
2024/02/05 11:01:45;;;;;;;4.85;1.92;;;;;;;2.79;56.59;95880.06;5109579;28;20692;-59
2024/02/05 11:04:12;;;;;;;3.63;2.00;;;;;;;2.83;55.59;95879.25;5110419;28;20127;-60
2024/02/05 11:06:41;;;;;;;5.95;2.80;;;;;;;2.79;55.93;95872.22;5109356;28;20036;-59
2024/02/05 11:09:10;;;;;;;3.58;1.95;;;;;;;2.95;56.28;95873.66;5092686;28;20035;-56
2024/02/05 11:11:37;;;;;;;3.72;2.38;;;;;;;3.09;55.97;95871.97;5093488;28;20042;-60
2024/02/05 11:14:08;;;;;;;4.57;2.20;;;;;;;3.08;55.79;95880.88;5109779;28;20061;-60
2024/02/05 11:16:38;;;;;;;3.28;2.00;;;;;;;3.08;56.80;95880.09;5093512;28;20051;-59
2024/02/05 11:19:04;;;;;;;;;;;;;;;3.15;56.81;95883.19;5119311;28;20088;-59
2024/02/05 11:21:39;;;;;;;6.55;2.08;;;;;;;3.25;56.58;95887.53;5128440;28;19931;-59
2024/02/05 11:24:06;;;;;;;5.05;2.35;;;;;;;3.27;56.60;95880.97;5125012;27;20585;-59
2024/02/05 11:26:32;;;;;;;5.85;2.22;;;;;;;3.23;56.27;95887.81;5110050;28;20104;-60
2024/02/05 11:28:58;;;;;;;3.35;1.88;;;;;;;3.23;56.29;95885.19;5111765;28;20441;-60
2024/02/05 11:31:26;;;;;;;4.97;2.65;;;;;;;3.26;55.78;95879.41;5115264;28;20067;-59
2024/02/05 11:33:59;;;;;;;6.78;2.45;;;;;;;3.05;56.20;95880.63;5080013;28;20036;-60
2024/02/05 11:36:27;;;;;;;3.85;2.10;;;;;;;3.22;56.52;95875.78;5114501;27;20500;-60
2024/02/05 11:39:03;;;;;;;5.07;2.03;;;;;;;3.29;55.94;95886.69;5113291;28;20076;-60